sensor_id;sensor_type;location;lat;lon;timestamp;temperature;humidity
77218;DHT22;66214;51.302;17.068;2024-03-17T00:01:00;5.56;75.87
77218;DHT22;66214;51.302;17.068;2024-03-17T00:03:50;5.49;75.86
77218;DHT22;66214;51.302;17.068;2024-03-17T00:06:18;5.43;75.89
77218;DHT22;66214;51.302;17.068;2024-03-17T00:08:46;5.39;76.29
77218;DHT22;66214;51.302;17.068;2024-03-17T00:11:14;5.36;76.45
77218;DHT22;66214;51.302;17.068;2024-03-17T00:13:42;5.32;76.48
77218;DHT22;66214;51.302;17.068;2024-03-17T00:16:10;5.29;76.29
77218;DHT22;66214;51.302;17.068;2024-03-17T00:18:38;5.25;76.10
77218;DHT22;66214;51.302;17.068;2024-03-17T00:21:09;5.18;75.91
77218;DHT22;66214;51.302;17.068;2024-03-17T00:23:37;5.12;75.93
77218;DHT22;66214;51.302;17.068;2024-03-17T00:26:05;5.07;76.07
77218;DHT22;66214;51.302;17.068;2024-03-17T00:28:33;5.02;76.73
77218;DHT22;66214;51.302;17.068;2024-03-17T00:31:03;5.00;77.44
77218;DHT22;66214;51.302;17.068;2024-03-17T00:33:31;4.97;77.75
77218;DHT22;66214;51.302;17.068;2024-03-17T00:36:00;4.93;77.71
77218;DHT22;66214;51.302;17.068;2024-03-17T00:38:28;4.90;77.49
77218;DHT22;66214;51.302;17.068;2024-03-17T00:40:56;4.87;77.36
77218;DHT22;66214;51.302;17.068;2024-03-17T00:43:24;4.83;77.18
77218;DHT22;66214;51.302;17.068;2024-03-17T00:45:52;4.80;77.46
77218;DHT22;66214;51.302;17.068;2024-03-17T00:48:20;4.79;77.82
77218;DHT22;66214;51.302;17.068;2024-03-17T00:50:54;4.77;78.02
77218;DHT22;66214;51.302;17.068;2024-03-17T00:53:25;4.75;77.76
77218;DHT22;66214;51.302;17.068;2024-03-17T00:55:54;4.72;77.34
77218;DHT22;66214;51.302;17.068;2024-03-17T00:58:25;4.71;77.00
77218;DHT22;66214;51.302;17.068;2024-03-17T01:00:53;4.68;76.79
77218;DHT22;66214;51.302;17.068;2024-03-17T01:03:21;4.66;76.92
77218;DHT22;66214;51.302;17.068;2024-03-17T01:05:49;4.65;77.29
77218;DHT22;66214;51.302;17.068;2024-03-17T01:08:19;4.64;77.59
77218;DHT22;66214;51.302;17.068;2024-03-17T01:10:48;4.64;77.66
77218;DHT22;66214;51.302;17.068;2024-03-17T01:13:18;4.62;77.54
77218;DHT22;66214;51.302;17.068;2024-03-17T01:15:50;4.59;77.53
77218;DHT22;66214;51.302;17.068;2024-03-17T01:18:19;4.55;77.49
77218;DHT22;66214;51.302;17.068;2024-03-17T01:20:47;4.50;77.46
77218;DHT22;66214;51.302;17.068;2024-03-17T01:23:15;4.46;77.73
77218;DHT22;66214;51.302;17.068;2024-03-17T01:25:43;4.42;78.33
77218;DHT22;66214;51.302;17.068;2024-03-17T01:28:11;4.41;78.71
77218;DHT22;66214;51.302;17.068;2024-03-17T01:30:39;4.42;78.92
77218;DHT22;66214;51.302;17.068;2024-03-17T01:33:08;4.41;79.14
77218;DHT22;66214;51.302;17.068;2024-03-17T01:35:38;4.40;78.86
77218;DHT22;66214;51.302;17.068;2024-03-17T01:38:12;4.36;78.74
77218;DHT22;66214;51.302;17.068;2024-03-17T01:40:40;4.32;78.52
77218;DHT22;66214;51.302;17.068;2024-03-17T01:43:09;4.26;78.38
77218;DHT22;66214;51.302;17.068;2024-03-17T01:45:39;4.23;78.76
77218;DHT22;66214;51.302;17.068;2024-03-17T01:48:08;4.20;79.11
77218;DHT22;66214;51.302;17.068;2024-03-17T01:50:42;4.18;79.54
77218;DHT22;66214;51.302;17.068;2024-03-17T01:53:12;4.17;79.68
77218;DHT22;66214;51.302;17.068;2024-03-17T01:55:43;4.14;79.51
77218;DHT22;66214;51.302;17.068;2024-03-17T01:58:13;4.11;79.18
77218;DHT22;66214;51.302;17.068;2024-03-17T02:00:41;4.07;78.83
77218;DHT22;66214;51.302;17.068;2024-03-17T02:03:10;4.02;78.52
77218;DHT22;66214;51.302;17.068;2024-03-17T02:05:39;4.00;78.46
77218;DHT22;66214;51.302;17.068;2024-03-17T02:08:09;3.99;78.70
77218;DHT22;66214;51.302;17.068;2024-03-17T02:10:38;4.00;78.96
77218;DHT22;66214;51.302;17.068;2024-03-17T02:13:06;3.98;79.20
77218;DHT22;66214;51.302;17.068;2024-03-17T02:15:34;3.98;78.99
77218;DHT22;66214;51.302;17.068;2024-03-17T02:18:02;3.97;78.73
77218;DHT22;66214;51.302;17.068;2024-03-17T02:20:30;3.95;78.51
77218;DHT22;66214;51.302;17.068;2024-03-17T02:23:17;3.92;78.22
77218;DHT22;66214;51.302;17.068;2024-03-17T02:25:46;3.88;78.04
77218;DHT22;66214;51.302;17.068;2024-03-17T02:28:15;3.84;78.43
77218;DHT22;66214;51.302;17.068;2024-03-17T02:30:43;3.82;78.99
77218;DHT22;66214;51.302;17.068;2024-03-17T02:33:11;3.79;79.41
77218;DHT22;66214;51.302;17.068;2024-03-17T02:35:38;3.79;79.75
77218;DHT22;66214;51.302;17.068;2024-03-17T02:38:06;3.77;79.77
77218;DHT22;66214;51.302;17.068;2024-03-17T02:40:42;3.75;79.58
77218;DHT22;66214;51.302;17.068;2024-03-17T02:43:10;3.72;79.35
77218;DHT22;66214;51.302;17.068;2024-03-17T02:45:38;3.69;79.06
77218;DHT22;66214;51.302;17.068;2024-03-17T02:48:06;3.65;78.97
77218;DHT22;66214;51.302;17.068;2024-03-17T02:50:35;3.63;79.14
77218;DHT22;66214;51.302;17.068;2024-03-17T02:53:03;3.61;79.49
77218;DHT22;66214;51.302;17.068;2024-03-17T02:55:32;3.58;79.80
77218;DHT22;66214;51.302;17.068;2024-03-17T02:57:59;3.53;79.77
77218;DHT22;66214;51.302;17.068;2024-03-17T03:00:27;3.49;79.48
77218;DHT22;66214;51.302;17.068;2024-03-17T03:02:57;3.44;79.17
77218;DHT22;66214;51.302;17.068;2024-03-17T03:05:25;3.39;78.97
77218;DHT22;66214;51.302;17.068;2024-03-17T03:07:53;3.34;78.89
77218;DHT22;66214;51.302;17.068;2024-03-17T03:10:21;3.31;79.07
77218;DHT22;66214;51.302;17.068;2024-03-17T03:12:49;3.28;79.40
77218;DHT22;66214;51.302;17.068;2024-03-17T03:15:17;3.27;79.74
77218;DHT22;66214;51.302;17.068;2024-03-17T03:17:46;3.25;80.18
77218;DHT22;66214;51.302;17.068;2024-03-17T03:20:14;3.24;80.45
77218;DHT22;66214;51.302;17.068;2024-03-17T03:22:42;3.24;80.29
77218;DHT22;66214;51.302;17.068;2024-03-17T03:25:10;3.24;80.10
77218;DHT22;66214;51.302;17.068;2024-03-17T03:27:38;3.20;79.80
77218;DHT22;66214;51.302;17.068;2024-03-17T03:30:06;3.18;79.53
77218;DHT22;66214;51.302;17.068;2024-03-17T03:32:36;3.15;79.50
77218;DHT22;66214;51.302;17.068;2024-03-17T03:35:06;3.12;79.75
77218;DHT22;66214;51.302;17.068;2024-03-17T03:37:34;3.10;80.19
77218;DHT22;66214;51.302;17.068;2024-03-17T03:40:02;3.09;80.59
77218;DHT22;66214;51.302;17.068;2024-03-17T03:42:43;3.12;80.82
77218;DHT22;66214;51.302;17.068;2024-03-17T03:45:13;3.15;81.19
77218;DHT22;66214;51.302;17.068;2024-03-17T03:47:42;3.15;81.11
77218;DHT22;66214;51.302;17.068;2024-03-17T03:50:10;3.14;80.88
77218;DHT22;66214;51.302;17.068;2024-03-17T03:52:39;3.11;80.64
77218;DHT22;66214;51.302;17.068;2024-03-17T03:55:09;3.08;80.42
77218;DHT22;66214;51.302;17.068;2024-03-17T03:57:38;3.03;80.36
77218;DHT22;66214;51.302;17.068;2024-03-17T04:00:06;3.01;80.61
77218;DHT22;66214;51.302;17.068;2024-03-17T04:02:40;2.97;81.07
77218;DHT22;66214;51.302;17.068;2024-03-17T04:05:11;2.94;81.71
77218;DHT22;66214;51.302;17.068;2024-03-17T04:07:39;2.93;82.07
77218;DHT22;66214;51.302;17.068;2024-03-17T04:10:08;2.90;82.02
77218;DHT22;66214;51.302;17.068;2024-03-17T04:12:37;2.86;81.78
77218;DHT22;66214;51.302;17.068;2024-03-17T04:15:05;2.83;81.64
77218;DHT22;66214;51.302;17.068;2024-03-17T04:17:34;2.81;81.43
77218;DHT22;66214;51.302;17.068;2024-03-17T04:20:02;2.81;81.59
77218;DHT22;66214;51.302;17.068;2024-03-17T04:22:35;2.82;81.86
77218;DHT22;66214;51.302;17.068;2024-03-17T04:25:04;2.83;81.99
77218;DHT22;66214;51.302;17.068;2024-03-17T04:27:32;2.82;81.71
77218;DHT22;66214;51.302;17.068;2024-03-17T04:30:01;2.81;81.40
77218;DHT22;66214;51.302;17.068;2024-03-17T04:32:33;2.78;81.14
77218;DHT22;66214;51.302;17.068;2024-03-17T04:35:01;2.76;81.00
77218;DHT22;66214;51.302;17.068;2024-03-17T04:37:29;2.77;81.31
77218;DHT22;66214;51.302;17.068;2024-03-17T04:39:57;2.78;81.59
77218;DHT22;66214;51.302;17.068;2024-03-17T04:42:25;2.79;81.86
77218;DHT22;66214;51.302;17.068;2024-03-17T04:44:53;2.80;81.96
77218;DHT22;66214;51.302;17.068;2024-03-17T04:47:21;2.79;81.80
77218;DHT22;66214;51.302;17.068;2024-03-17T04:49:49;2.79;81.56
77218;DHT22;66214;51.302;17.068;2024-03-17T04:52:17;2.75;81.28
77218;DHT22;66214;51.302;17.068;2024-03-17T04:54:45;2.73;81.10
77218;DHT22;66214;51.302;17.068;2024-03-17T04:57:13;2.72;81.31
77218;DHT22;66214;51.302;17.068;2024-03-17T04:59:41;2.72;81.67
77218;DHT22;66214;51.302;17.068;2024-03-17T05:03:57;2.74;82.11
77218;DHT22;66214;51.302;17.068;2024-03-17T05:06:25;2.77;81.64
77218;DHT22;66214;51.302;17.068;2024-03-17T05:08:53;2.78;81.28
77218;DHT22;66214;51.302;17.068;2024-03-17T05:11:21;2.79;81.03
77218;DHT22;66214;51.302;17.068;2024-03-17T05:13:51;2.81;80.86
77218;DHT22;66214;51.302;17.068;2024-03-17T05:16:19;2.83;81.07
77218;DHT22;66214;51.302;17.068;2024-03-17T05:18:49;2.86;81.35
77218;DHT22;66214;51.302;17.068;2024-03-17T05:21:17;2.88;81.53
77218;DHT22;66214;51.302;17.068;2024-03-17T05:23:45;2.89;81.63
77218;DHT22;66214;51.302;17.068;2024-03-17T05:26:13;2.90;81.33
77218;DHT22;66214;51.302;17.068;2024-03-17T05:28:41;2.89;81.04
77218;DHT22;66214;51.302;17.068;2024-03-17T05:31:10;2.87;80.77
77218;DHT22;66214;51.302;17.068;2024-03-17T05:33:42;2.87;80.57
77218;DHT22;66214;51.302;17.068;2024-03-17T05:36:10;2.85;80.42
77218;DHT22;66214;51.302;17.068;2024-03-17T05:38:38;2.84;80.69
77218;DHT22;66214;51.302;17.068;2024-03-17T05:41:06;2.85;81.17
77218;DHT22;66214;51.302;17.068;2024-03-17T05:43:37;2.87;81.41
77218;DHT22;66214;51.302;17.068;2024-03-17T05:46:06;2.88;81.19
77218;DHT22;66214;51.302;17.068;2024-03-17T05:48:37;2.90;80.92
77218;DHT22;66214;51.302;17.068;2024-03-17T05:51:07;2.92;80.62
77218;DHT22;66214;51.302;17.068;2024-03-17T05:53:39;2.94;80.46
77218;DHT22;66214;51.302;17.068;2024-03-17T05:56:07;2.98;80.67
77218;DHT22;66214;51.302;17.068;2024-03-17T05:58:36;3.05;80.97
77218;DHT22;66214;51.302;17.068;2024-03-17T06:01:05;3.10;81.07
77218;DHT22;66214;51.302;17.068;2024-03-17T06:03:36;3.15;80.77
77218;DHT22;66214;51.302;17.068;2024-03-17T06:06:06;3.20;80.44
77218;DHT22;66214;51.302;17.068;2024-03-17T06:08:37;3.26;80.08
77218;DHT22;66214;51.302;17.068;2024-03-17T06:11:09;3.26;79.76
77218;DHT22;66214;51.302;17.068;2024-03-17T06:13:38;3.29;79.55
77218;DHT22;66214;51.302;17.068;2024-03-17T06:16:06;3.41;79.80
77218;DHT22;66214;51.302;17.068;2024-03-17T06:18:34;3.63;79.93
77218;DHT22;66214;51.302;17.068;2024-03-17T06:21:04;3.77;79.73
77218;DHT22;66214;51.302;17.068;2024-03-17T06:23:32;3.78;78.98
77218;DHT22;66214;51.302;17.068;2024-03-17T06:26:00;3.80;78.64
77218;DHT22;66214;51.302;17.068;2024-03-17T06:28:33;3.83;78.13
77218;DHT22;66214;51.302;17.068;2024-03-17T06:31:01;3.93;77.75
77218;DHT22;66214;51.302;17.068;2024-03-17T06:33:32;4.03;77.33
77218;DHT22;66214;51.302;17.068;2024-03-17T06:36:04;4.13;77.27
77218;DHT22;66214;51.302;17.068;2024-03-17T06:38:33;4.24;77.48
77218;DHT22;66214;51.302;17.068;2024-03-17T06:41:01;4.33;77.01
77218;DHT22;66214;51.302;17.068;2024-03-17T06:43:29;4.43;76.49
77218;DHT22;66214;51.302;17.068;2024-03-17T06:45:57;4.50;76.01
77218;DHT22;66214;51.302;17.068;2024-03-17T06:48:28;4.53;75.44
77218;DHT22;66214;51.302;17.068;2024-03-17T06:50:56;4.61;75.11
77218;DHT22;66214;51.302;17.068;2024-03-17T06:53:25;4.65;74.54
77218;DHT22;66214;51.302;17.068;2024-03-17T06:55:54;4.67;74.56
77218;DHT22;66214;51.302;17.068;2024-03-17T06:58:24;4.71;74.41
77218;DHT22;66214;51.302;17.068;2024-03-17T07:01:01;4.80;74.57
77218;DHT22;66214;51.302;17.068;2024-03-17T07:03:30;4.86;74.64
77218;DHT22;66214;51.302;17.068;2024-03-17T07:06:01;4.92;73.69
77218;DHT22;66214;51.302;17.068;2024-03-17T07:08:30;4.95;73.54
77218;DHT22;66214;51.302;17.068;2024-03-17T07:11:06;5.03;73.33
77218;DHT22;66214;51.302;17.068;2024-03-17T07:13:38;5.11;72.50
77218;DHT22;66214;51.302;17.068;2024-03-17T07:16:06;5.16;71.77
77218;DHT22;66214;51.302;17.068;2024-03-17T07:18:34;5.23;71.79
77218;DHT22;66214;51.302;17.068;2024-03-17T07:21:04;5.30;71.74
77218;DHT22;66214;51.302;17.068;2024-03-17T07:23:32;5.39;71.44
77218;DHT22;66214;51.302;17.068;2024-03-17T07:26:01;5.45;71.20
77218;DHT22;66214;51.302;17.068;2024-03-17T07:28:32;5.52;71.42
77218;DHT22;66214;51.302;17.068;2024-03-17T07:31:00;5.57;71.47
77218;DHT22;66214;51.302;17.068;2024-03-17T07:33:29;5.63;70.16
77218;DHT22;66214;51.302;17.068;2024-03-17T07:35:57;5.67;69.56
77218;DHT22;66214;51.302;17.068;2024-03-17T07:38:28;5.70;68.55
77218;DHT22;66214;51.302;17.068;2024-03-17T07:40:59;5.68;68.04
77218;DHT22;66214;51.302;17.068;2024-03-17T07:46:50;5.91;68.09
77218;DHT22;66214;51.302;17.068;2024-03-17T07:49:18;6.04;67.35
77218;DHT22;66214;51.302;17.068;2024-03-17T07:51:46;6.13;65.95
77218;DHT22;66214;51.302;17.068;2024-03-17T07:54:15;6.16;65.52
77218;DHT22;66214;51.302;17.068;2024-03-17T07:56:43;6.20;65.17
77218;DHT22;66214;51.302;17.068;2024-03-17T07:59:10;6.19;65.08
77218;DHT22;66214;51.302;17.068;2024-03-17T08:03:57;6.13;65.35
77218;DHT22;66214;51.302;17.068;2024-03-17T08:06:26;6.05;65.45
77218;DHT22;66214;51.302;17.068;2024-03-17T08:08:54;5.99;66.14
77218;DHT22;66214;51.302;17.068;2024-03-17T08:11:22;5.99;66.50
77218;DHT22;66214;51.302;17.068;2024-03-17T08:13:52;5.94;66.08
77218;DHT22;66214;51.302;17.068;2024-03-17T08:16:24;5.84;66.24
77218;DHT22;66214;51.302;17.068;2024-03-17T08:22:22;5.76;66.82
77218;DHT22;66214;51.302;17.068;2024-03-17T08:24:50;5.80;66.80
77218;DHT22;66214;51.302;17.068;2024-03-17T08:27:18;5.84;67.15
77218;DHT22;66214;51.302;17.068;2024-03-17T08:29:46;5.92;67.42
77218;DHT22;66214;51.302;17.068;2024-03-17T08:32:14;5.99;67.03
77218;DHT22;66214;51.302;17.068;2024-03-17T08:34:45;6.04;67.09
77218;DHT22;66214;51.302;17.068;2024-03-17T08:37:16;6.11;65.69
77218;DHT22;66214;51.302;17.068;2024-03-17T08:39:44;6.10;64.96
77218;DHT22;66214;51.302;17.068;2024-03-17T08:42:11;6.11;64.67
77218;DHT22;66214;51.302;17.068;2024-03-17T08:44:39;6.10;64.23
77218;DHT22;66214;51.302;17.068;2024-03-17T08:47:07;6.11;64.35
77218;DHT22;66214;51.302;17.068;2024-03-17T08:49:35;6.13;64.47
77218;DHT22;66214;51.302;17.068;2024-03-17T08:52:03;6.16;64.69
77218;DHT22;66214;51.302;17.068;2024-03-17T08:54:32;6.23;64.43
77218;DHT22;66214;51.302;17.068;2024-03-17T08:57:00;6.29;64.30
77218;DHT22;66214;51.302;17.068;2024-03-17T08:59:27;6.27;63.29
77218;DHT22;66214;51.302;17.068;2024-03-17T09:01:55;6.30;63.52
77218;DHT22;66214;51.302;17.068;2024-03-17T09:04:23;6.38;63.82
77218;DHT22;66214;51.302;17.068;2024-03-17T09:06:51;6.44;62.80
77218;DHT22;66214;51.302;17.068;2024-03-17T09:09:22;6.42;62.23
77218;DHT22;66214;51.302;17.068;2024-03-17T09:11:50;6.36;61.94
77218;DHT22;66214;51.302;17.068;2024-03-17T09:14:18;6.34;61.95
77218;DHT22;66214;51.302;17.068;2024-03-17T09:16:46;6.35;61.81
77218;DHT22;66214;51.302;17.068;2024-03-17T09:19:15;6.33;61.89
77218;DHT22;66214;51.302;17.068;2024-03-17T09:21:43;6.37;62.22
77218;DHT22;66214;51.302;17.068;2024-03-17T09:24:12;6.42;61.38
77218;DHT22;66214;51.302;17.068;2024-03-17T09:26:40;6.47;61.50
77218;DHT22;66214;51.302;17.068;2024-03-17T09:29:08;6.51;61.61
77218;DHT22;66214;51.302;17.068;2024-03-17T09:31:36;6.55;61.74
77218;DHT22;66214;51.302;17.068;2024-03-17T09:34:03;6.63;61.68
77218;DHT22;66214;51.302;17.068;2024-03-17T09:36:32;6.69;61.36
77218;DHT22;66214;51.302;17.068;2024-03-17T09:38:59;6.84;60.94
77218;DHT22;66214;51.302;17.068;2024-03-17T09:41:31;7.05;60.92
77218;DHT22;66214;51.302;17.068;2024-03-17T09:43:59;7.26;60.57
77218;DHT22;66214;51.302;17.068;2024-03-17T09:46:27;7.36;60.10
77218;DHT22;66214;51.302;17.068;2024-03-17T09:48:56;7.45;59.59
77218;DHT22;66214;51.302;17.068;2024-03-17T09:51:25;7.51;59.07
77218;DHT22;66214;51.302;17.068;2024-03-17T09:53:53;7.55;58.83
77218;DHT22;66214;51.302;17.068;2024-03-17T09:56:21;7.53;57.88
77218;DHT22;66214;51.302;17.068;2024-03-17T09:58:50;7.75;58.11
77218;DHT22;66214;51.302;17.068;2024-03-17T10:01:19;7.88;57.69
77218;DHT22;66214;51.302;17.068;2024-03-17T10:03:47;7.86;57.06
77218;DHT22;66214;51.302;17.068;2024-03-17T10:06:19;7.94;57.86
77218;DHT22;66214;51.302;17.068;2024-03-17T10:08:50;8.55;56.76
77218;DHT22;66214;51.302;17.068;2024-03-17T10:11:21;9.78;54.09
77218;DHT22;66214;51.302;17.068;2024-03-17T10:16:37;11.78;50.81
77218;DHT22;66214;51.302;17.068;2024-03-17T10:19:07;11.18;51.93
77218;DHT22;66214;51.302;17.068;2024-03-17T10:21:42;10.94;51.05
77218;DHT22;66214;51.302;17.068;2024-03-17T10:24:19;11.00;51.06
77218;DHT22;66214;51.302;17.068;2024-03-17T10:29:20;10.66;50.92
77218;DHT22;66214;51.302;17.068;2024-03-17T10:31:59;11.85;48.94
77218;DHT22;66214;51.302;17.068;2024-03-17T10:34:30;12.89;47.43
77218;DHT22;66214;51.302;17.068;2024-03-17T10:37:06;12.76;46.36
77218;DHT22;66214;51.302;17.068;2024-03-17T10:39:38;11.89;47.46
77218;DHT22;66214;51.302;17.068;2024-03-17T10:42:09;11.36;47.71
77218;DHT22;66214;51.302;17.068;2024-03-17T10:44:39;10.96;47.99
77218;DHT22;66214;51.302;17.068;2024-03-17T10:47:12;10.58;48.98
77218;DHT22;66214;51.302;17.068;2024-03-17T10:49:54;10.47;49.77
77218;DHT22;66214;51.302;17.068;2024-03-17T10:52:23;11.17;49.56
77218;DHT22;66214;51.302;17.068;2024-03-17T10:54:55;11.35;48.63
77218;DHT22;66214;51.302;17.068;2024-03-17T11:00:04;12.49;47.85
77218;DHT22;66214;51.302;17.068;2024-03-17T11:03:57;12.69;47.42
77218;DHT22;66214;51.302;17.068;2024-03-17T11:06:26;12.55;46.71
77218;DHT22;66214;51.302;17.068;2024-03-17T11:08:54;12.57;47.00
77218;DHT22;66214;51.302;17.068;2024-03-17T11:11:35;12.23;46.61
77218;DHT22;66214;51.302;17.068;2024-03-17T11:14:15;12.52;45.99
77218;DHT22;66214;51.302;17.068;2024-03-17T11:16:50;13.79;45.28
77218;DHT22;66214;51.302;17.068;2024-03-17T11:19:18;14.69;44.16
77218;DHT22;66214;51.302;17.068;2024-03-17T11:21:46;14.79;42.07
77218;DHT22;66214;51.302;17.068;2024-03-17T11:24:19;14.25;41.45
77218;DHT22;66214;51.302;17.068;2024-03-17T11:26:48;13.26;42.47
77218;DHT22;66214;51.302;17.068;2024-03-17T11:29:26;12.36;44.22
77218;DHT22;66214;51.302;17.068;2024-03-17T11:31:56;12.45;45.32
77218;DHT22;66214;51.302;17.068;2024-03-17T11:34:34;13.08;44.74
77218;DHT22;66214;51.302;17.068;2024-03-17T11:37:05;13.14;44.41
77218;DHT22;66214;51.302;17.068;2024-03-17T11:39:45;13.54;43.32
77218;DHT22;66214;51.302;17.068;2024-03-17T11:42:20;13.15;42.67
77218;DHT22;66214;51.302;17.068;2024-03-17T11:44:54;12.71;43.37
77218;DHT22;66214;51.302;17.068;2024-03-17T11:47:35;12.99;43.49
77218;DHT22;66214;51.302;17.068;2024-03-17T11:50:07;13.43;43.85
77218;DHT22;66214;51.302;17.068;2024-03-17T11:52:39;13.95;42.99
77218;DHT22;66214;51.302;17.068;2024-03-17T11:55:15;13.44;42.65
77218;DHT22;66214;51.302;17.068;2024-03-17T11:57:45;12.91;43.26
77218;DHT22;66214;51.302;17.068;2024-03-17T12:00:20;12.67;43.48
77218;DHT22;66214;51.302;17.068;2024-03-17T12:02:50;12.55;43.63
77218;DHT22;66214;51.302;17.068;2024-03-17T12:05:19;13.55;42.82
77218;DHT22;66214;51.302;17.068;2024-03-17T12:07:48;14.86;42.15
77218;DHT22;66214;51.302;17.068;2024-03-17T12:10:17;15.71;39.96
77218;DHT22;66214;51.302;17.068;2024-03-17T12:12:46;16.07;38.80
77218;DHT22;66214;51.302;17.068;2024-03-17T12:15:17;15.47;39.79
77218;DHT22;66214;51.302;17.068;2024-03-17T12:17:51;14.53;40.04
77218;DHT22;66214;51.302;17.068;2024-03-17T12:20:21;13.62;41.65
77218;DHT22;66214;51.302;17.068;2024-03-17T12:22:49;12.97;42.55
77218;DHT22;66214;51.302;17.068;2024-03-17T12:25:19;12.33;43.05
77218;DHT22;66214;51.302;17.068;2024-03-17T12:27:48;11.82;43.68
77218;DHT22;66214;51.302;17.068;2024-03-17T12:30:16;11.56;43.85
77218;DHT22;66214;51.302;17.068;2024-03-17T12:32:46;11.54;44.19
77218;DHT22;66214;51.302;17.068;2024-03-17T12:35:15;11.91;43.77
77218;DHT22;66214;51.302;17.068;2024-03-17T12:37:45;12.11;43.25
77218;DHT22;66214;51.302;17.068;2024-03-17T12:40:20;12.00;43.48
77218;DHT22;66214;51.302;17.068;2024-03-17T12:42:51;12.61;43.49
77218;DHT22;66214;51.302;17.068;2024-03-17T12:45:19;13.49;42.13
77218;DHT22;66214;51.302;17.068;2024-03-17T12:47:51;14.69;40.85
77218;DHT22;66214;51.302;17.068;2024-03-17T12:50:19;15.92;38.88
77218;DHT22;66214;51.302;17.068;2024-03-17T12:52:51;16.81;37.38
77218;DHT22;66214;51.302;17.068;2024-03-17T12:55:23;16.51;36.97
77218;DHT22;66214;51.302;17.068;2024-03-17T12:58:10;15.46;36.83
77218;DHT22;66214;51.302;17.068;2024-03-17T13:01:01;14.77;37.35
77218;DHT22;66214;51.302;17.068;2024-03-17T13:03:34;15.56;36.07
77218;DHT22;66214;51.302;17.068;2024-03-17T13:06:04;16.32;35.26
77218;DHT22;66214;51.302;17.068;2024-03-17T13:08:37;17.06;34.38
77218;DHT22;66214;51.302;17.068;2024-03-17T13:11:06;17.84;34.07
77218;DHT22;66214;51.302;17.068;2024-03-17T13:13:36;18.56;32.92
77218;DHT22;66214;51.302;17.068;2024-03-17T13:16:05;18.94;31.41
77218;DHT22;66214;51.302;17.068;2024-03-17T13:18:34;19.28;30.83
77218;DHT22;66214;51.302;17.068;2024-03-17T13:21:02;19.90;30.82
77218;DHT22;66214;51.302;17.068;2024-03-17T13:23:31;20.51;29.55
77218;DHT22;66214;51.302;17.068;2024-03-17T13:25:59;20.96;29.04
77218;DHT22;66214;51.302;17.068;2024-03-17T13:28:27;21.16;28.11
77218;DHT22;66214;51.302;17.068;2024-03-17T13:30:55;20.23;28.38
77218;DHT22;66214;51.302;17.068;2024-03-17T13:33:23;18.89;28.55
77218;DHT22;66214;51.302;17.068;2024-03-17T13:35:51;17.51;29.91
77218;DHT22;66214;51.302;17.068;2024-03-17T13:38:19;16.44;30.67
77218;DHT22;66214;51.302;17.068;2024-03-17T13:40:47;15.22;31.71
77218;DHT22;66214;51.302;17.068;2024-03-17T13:43:15;14.28;33.26
77218;DHT22;66214;51.302;17.068;2024-03-17T13:45:43;13.70;34.27
77218;DHT22;66214;51.302;17.068;2024-03-17T13:48:12;13.16;34.44
77218;DHT22;66214;51.302;17.068;2024-03-17T13:50:40;12.70;35.26
77218;DHT22;66214;51.302;17.068;2024-03-17T13:53:11;12.77;35.51
77218;DHT22;66214;51.302;17.068;2024-03-17T13:55:39;12.96;34.98
77218;DHT22;66214;51.302;17.068;2024-03-17T13:58:07;12.54;35.79
77218;DHT22;66214;51.302;17.068;2024-03-17T14:03:57;12.49;36.92
77218;DHT22;66214;51.302;17.068;2024-03-17T14:06:25;12.45;37.21
77218;DHT22;66214;51.302;17.068;2024-03-17T14:08:53;12.23;37.56
77218;DHT22;66214;51.302;17.068;2024-03-17T14:11:20;11.77;38.54
77218;DHT22;66214;51.302;17.068;2024-03-17T14:13:48;11.39;39.17
77218;DHT22;66214;51.302;17.068;2024-03-17T14:16:16;11.06;39.79
77218;DHT22;66214;51.302;17.068;2024-03-17T14:18:44;10.84;40.11
77218;DHT22;66214;51.302;17.068;2024-03-17T14:21:12;10.63;40.50
77218;DHT22;66214;51.302;17.068;2024-03-17T14:23:40;10.49;41.07
77218;DHT22;66214;51.302;17.068;2024-03-17T14:26:11;10.31;41.40
77218;DHT22;66214;51.302;17.068;2024-03-17T14:28:40;10.11;42.13
77218;DHT22;66214;51.302;17.068;2024-03-17T14:31:08;10.01;42.83
77218;DHT22;66214;51.302;17.068;2024-03-17T14:33:36;9.89;43.17
77218;DHT22;66214;51.302;17.068;2024-03-17T14:36:05;9.76;43.70
77218;DHT22;66214;51.302;17.068;2024-03-17T14:38:33;9.80;43.47
77218;DHT22;66214;51.302;17.068;2024-03-17T14:41:01;9.77;43.81
77218;DHT22;66214;51.302;17.068;2024-03-17T14:43:32;9.69;44.29
77218;DHT22;66214;51.302;17.068;2024-03-17T14:46:03;9.57;44.76
77218;DHT22;66214;51.302;17.068;2024-03-17T14:48:35;9.45;45.29
77218;DHT22;66214;51.302;17.068;2024-03-17T14:51:03;9.39;45.33
77218;DHT22;66214;51.302;17.068;2024-03-17T14:53:31;9.32;45.80
77218;DHT22;66214;51.302;17.068;2024-03-17T14:56:00;9.27;46.07
77218;DHT22;66214;51.302;17.068;2024-03-17T14:58:28;9.25;46.11
77218;DHT22;66214;51.302;17.068;2024-03-17T15:00:55;9.22;46.39
77218;DHT22;66214;51.302;17.068;2024-03-17T15:03:23;9.17;46.64
77218;DHT22;66214;51.302;17.068;2024-03-17T15:05:51;9.12;46.67
77218;DHT22;66214;51.302;17.068;2024-03-17T15:08:19;9.02;47.11
77218;DHT22;66214;51.302;17.068;2024-03-17T15:10:47;8.96;47.36
77218;DHT22;66214;51.302;17.068;2024-03-17T15:13:15;9.08;47.15
77218;DHT22;66214;51.302;17.068;2024-03-17T17:03:57;6.25;57.25
77218;DHT22;66214;51.302;17.068;2024-03-17T17:06:25;6.25;56.51
77218;DHT22;66214;51.302;17.068;2024-03-17T17:08:53;6.22;56.70
77218;DHT22;66214;51.302;17.068;2024-03-17T17:11:21;6.17;57.00
77218;DHT22;66214;51.302;17.068;2024-03-17T17:13:49;6.12;56.63
77218;DHT22;66214;51.302;17.068;2024-03-17T17:16:17;6.05;57.14
77218;DHT22;66214;51.302;17.068;2024-03-17T17:18:51;5.97;57.76
77218;DHT22;66214;51.302;17.068;2024-03-17T17:21:25;5.92;57.55
77218;DHT22;66214;51.302;17.068;2024-03-17T17:23:54;5.85;58.20
77218;DHT22;66214;51.302;17.068;2024-03-17T17:26:26;5.83;57.58
77218;DHT22;66214;51.302;17.068;2024-03-17T17:28:56;5.78;57.55
77218;DHT22;66214;51.302;17.068;2024-03-17T17:31:30;5.76;57.50
77218;DHT22;66214;51.302;17.068;2024-03-17T17:33:59;5.74;57.97
77218;DHT22;66214;51.302;17.068;2024-03-17T17:36:27;5.71;58.00
77218;DHT22;66214;51.302;17.068;2024-03-17T17:38:55;5.65;59.13
77218;DHT22;66214;51.302;17.068;2024-03-17T17:44:51;5.60;59.55
77218;DHT22;66214;51.302;17.068;2024-03-17T17:47:19;5.56;60.03
77218;DHT22;66214;51.302;17.068;2024-03-17T17:49:47;5.54;59.54
77218;DHT22;66214;51.302;17.068;2024-03-17T17:52:15;5.53;60.18
77218;DHT22;66214;51.302;17.068;2024-03-17T17:54:43;5.50;60.28
77218;DHT22;66214;51.302;17.068;2024-03-17T17:57:10;5.47;60.02